National Oceanic Atmosphere Administration National Weather Service Headquarters National Weather Service Headquarters
NOAA logo WFO Anchorage Scalable transition graphic NWS logo
Transition from title bar to navgation bar   Aviation Weather 07 AKDT 
blankspace Home   |   Mobile   |   Social Media   |   Mesonet   |   Surface Map   |   Radar   |   Submit Storm Reports   |   News =15 GMT 

LocalForecast by City, St or Zip Code

spacer

Forecasts/Products
  Public
  Forecast Discussion
    - With Glossary
  Aviation
  Marine
  Hydrology(RFC)
  Rivers & Lakes AHPS
  Ice Desk
  TV Weather
  Fire Weather
  Avalanche
  Travel 511
  Graphical
  xml logo RSS Feeds
  Marine FTPMail

spacer

Data
  Mesonet
  Model Graphics
  Local Model
  Observations
  Marine Obs
  Satellite/Radar
  Vent Factor
  Soaring Index
  Weather Links

spacer

Climate
  PAFC Climate
  Interactive Climate
  PAFC Records
  Local
  National
  More

spacer

Outreach
  About Us
  Community Outreach
  Kids' Page
  Tour/Speaker Request
  Weather Classroom
  Social Media

spacer

Reports
  COOP Observers
  Local Storm Reports
  Spotter Page
  Submit a Storm Report

spacer

Miscellaneous
  Archived Alaska Weather Stories
  Student Career Opportunities
  Research Papers

spacer

Print Friendly/
Low Bandwidth

  Public Forecasts
  Marine Forecasts

spacer

Contact Us
  mailto pafcweb

spacer

Facebook Follow the National Weather Service in Alaska on Twitter
USA.gov is the U.S. government's official web portal to all federal, state and local government web resources and services.


 ICAO ID:   AAWU Graphics

Internet access to TAFs and METAR observations is for planning purposes only. We can not guarantee the timeliness of internet products. Before flying please get a formal pilot briefing (1-800-992-7433) and ALWAYS file a Flight Plan!Pilot briefings are provided to licensed aircraft pilots, ONLY! Others may not use the above number to obtain weather information.

Check out the Key to TAFs and METARs for help with decoding the information.

A 12 hour summary of TAFs can be found here.

PATK TAF
PATK 031500Z 0315/0412  VRB04KT P6SM VCFG SCT001 BKN110
     FM032000 21006KT P6SM SCT020 BKN100
     FM040200 VRB03KT P6SM SCT020 OVC080=



METAR PATK 031453Z AUTO 00000KT 10SM OVC095 09/08 A3018 RMK AO2 SLP223
     T00890078 50007 TSNO $=
METAR PATK 031353Z AUTO 00000KT 10SM FEW050 OVC110 07/07 A3018 RMK AO2
     SLP223 T00670067 TSNO $=
METAR PATK 031253Z AUTO 00000KT 10SM FEW001 06/06 A3017 RMK AO2 SLP220
     T00610061 TSNO $=
PATK 031242Z AUTO 00000KT 6SM BR SCT001 07/06 A3017 RMK AO2
     T00670061 TSNO $=
PATK 031238Z AUTO 00000KT 2SM BR BKN001 07/06 A3016=
PATK 031212Z AUTO 00000KT 1/4SM FG VV001 07/06 A3016=
PATK 031204Z AUTO 00000KT 1 1/2SM BR OVC002 07/06 A3016=
METAR PATK 031153Z AUTO 00000KT 7SM OVC002 06/06 A3016 RMK AO2 SLP216
     70017 T00610061 10133 20061 51013 TSNO $=
PATK 031137Z AUTO 00000KT 4SM BR OVC002 07/07 A3016=
SPECI PATK 031125Z AUTO 00000KT 1 3/4SM BR OVC002 08/08 A3015 RMK AO2
     VIS 3/4V4 T00780078 TSNO $=
PATK 031120Z AUTO 00000KT 3SM BR OVC002 08/08 A3015=
PATK 031113Z AUTO 00000KT 2 1/2SM BR OVC002 08/07 A3015=


National Weather Service
Anchorage Forecast Office
6930 Sand Lake Road
Anchorage, Ak 99502
(907) 266-5105 M-F/7-5pm
About Us
Career Opportunities
Glossary
Disclaimer
Privacy Policy
Credits
Alaska Weather Information Line:
1-800-472-0391